sensor_id;sensor_type;location;lat;lon;timestamp;P1;durP1;ratioP1;P2;durP2;ratioP2
73337;SDS011;61575;49.908;35.556;2024-01-07T00:00:03;38.60;;;14.87;;
73337;SDS011;61575;49.908;35.556;2024-01-07T00:03:06;36.83;;;15.65;;
73337;SDS011;61575;49.908;35.556;2024-01-07T00:09:12;28.10;;;12.93;;
73337;SDS011;61575;49.908;35.556;2024-01-07T00:12:14;34.92;;;14.45;;
73337;SDS011;61575;49.908;35.556;2024-01-07T00:15:16;32.55;;;13.50;;
73337;SDS011;61575;49.908;35.556;2024-01-07T00:18:18;32.22;;;14.00;;
73337;SDS011;61575;49.908;35.556;2024-01-07T00:21:21;30.92;;;12.93;;
73337;SDS011;61575;49.908;35.556;2024-01-07T00:24:23;33.30;;;14.20;;
73337;SDS011;61575;49.908;35.556;2024-01-07T00:27:27;30.13;;;13.63;;
73337;SDS011;61575;49.908;35.556;2024-01-07T00:30:29;31.40;;;13.27;;
73337;SDS011;61575;49.908;35.556;2024-01-07T00:33:31;35.83;;;15.93;;
73337;SDS011;61575;49.908;35.556;2024-01-07T00:36:34;37.20;;;16.70;;
73337;SDS011;61575;49.908;35.556;2024-01-07T00:39:36;35.73;;;15.83;;
73337;SDS011;61575;49.908;35.556;2024-01-07T00:42:38;39.30;;;16.57;;
73337;SDS011;61575;49.908;35.556;2024-01-07T00:45:40;34.90;;;15.33;;
73337;SDS011;61575;49.908;35.556;2024-01-07T00:48:42;36.67;;;16.53;;
73337;SDS011;61575;49.908;35.556;2024-01-07T00:51:44;33.17;;;13.95;;
73337;SDS011;61575;49.908;35.556;2024-01-07T00:54:46;25.75;;;12.18;;
73337;SDS011;61575;49.908;35.556;2024-01-07T00:57:49;30.38;;;12.98;;
73337;SDS011;61575;49.908;35.556;2024-01-07T01:00:52;32.42;;;12.43;;
73337;SDS011;61575;49.908;35.556;2024-01-07T01:03:56;29.83;;;12.25;;
73337;SDS011;61575;49.908;35.556;2024-01-07T01:07:00;48.38;;;19.27;;
73337;SDS011;61575;49.908;35.556;2024-01-07T01:10:02;183.90;;;56.10;;
73337;SDS011;61575;49.908;35.556;2024-01-07T01:13:04;87.45;;;29.23;;
73337;SDS011;61575;49.908;35.556;2024-01-07T01:16:06;156.13;;;46.20;;
73337;SDS011;61575;49.908;35.556;2024-01-07T01:19:09;143.77;;;43.45;;
73337;SDS011;61575;49.908;35.556;2024-01-07T01:22:11;253.95;;;65.18;;
73337;SDS011;61575;49.908;35.556;2024-01-07T01:25:13;167.77;;;42.72;;
73337;SDS011;61575;49.908;35.556;2024-01-07T01:28:15;301.77;;;78.43;;
73337;SDS011;61575;49.908;35.556;2024-01-07T01:31:17;126.90;;;41.37;;
73337;SDS011;61575;49.908;35.556;2024-01-07T01:34:20;114.45;;;34.53;;
73337;SDS011;61575;49.908;35.556;2024-01-07T01:37:22;123.13;;;34.63;;
73337;SDS011;61575;49.908;35.556;2024-01-07T01:40:24;119.50;;;36.28;;
73337;SDS011;61575;49.908;35.556;2024-01-07T01:43:27;207.83;;;52.07;;
73337;SDS011;61575;49.908;35.556;2024-01-07T01:46:30;209.25;;;57.03;;
73337;SDS011;61575;49.908;35.556;2024-01-07T01:49:32;151.52;;;45.33;;
73337;SDS011;61575;49.908;35.556;2024-01-07T01:52:37;37.80;;;17.95;;
73337;SDS011;61575;49.908;35.556;2024-01-07T01:55:39;27.50;;;11.63;;
73337;SDS011;61575;49.908;35.556;2024-01-07T01:58:42;23.88;;;11.32;;
73337;SDS011;61575;49.908;35.556;2024-01-07T02:01:45;20.25;;;9.23;;
73337;SDS011;61575;49.908;35.556;2024-01-07T02:04:47;26.08;;;12.55;;
73337;SDS011;61575;49.908;35.556;2024-01-07T02:07:49;28.27;;;13.85;;
73337;SDS011;61575;49.908;35.556;2024-01-07T02:10:52;22.23;;;9.25;;
73337;SDS011;61575;49.908;35.556;2024-01-07T02:13:54;18.45;;;8.38;;
73337;SDS011;61575;49.908;35.556;2024-01-07T02:16:57;18.33;;;9.35;;
73337;SDS011;61575;49.908;35.556;2024-01-07T02:19:59;22.35;;;10.05;;
73337;SDS011;61575;49.908;35.556;2024-01-07T02:23:02;24.88;;;12.13;;
73337;SDS011;61575;49.908;35.556;2024-01-07T02:26:05;25.30;;;10.85;;
73337;SDS011;61575;49.908;35.556;2024-01-07T02:29:07;17.80;;;7.70;;
73337;SDS011;61575;49.908;35.556;2024-01-07T02:32:09;23.60;;;10.87;;
73337;SDS011;61575;49.908;35.556;2024-01-07T02:35:11;20.23;;;8.80;;
73337;SDS011;61575;49.908;35.556;2024-01-07T02:38:13;19.05;;;8.73;;
73337;SDS011;61575;49.908;35.556;2024-01-07T02:41:16;17.60;;;7.57;;
73337;SDS011;61575;49.908;35.556;2024-01-07T02:44:18;17.50;;;8.07;;
73337;SDS011;61575;49.908;35.556;2024-01-07T02:47:20;17.10;;;7.23;;
73337;SDS011;61575;49.908;35.556;2024-01-07T02:50:22;15.10;;;5.95;;
73337;SDS011;61575;49.908;35.556;2024-01-07T02:53:25;17.45;;;6.70;;
73337;SDS011;61575;49.908;35.556;2024-01-07T02:56:27;18.17;;;6.97;;
73337;SDS011;61575;49.908;35.556;2024-01-07T02:59:29;18.27;;;6.88;;
73337;SDS011;61575;49.908;35.556;2024-01-07T03:02:32;17.60;;;6.40;;
73337;SDS011;61575;49.908;35.556;2024-01-07T03:05:34;17.70;;;6.25;;
73337;SDS011;61575;49.908;35.556;2024-01-07T03:08:36;14.00;;;6.37;;
73337;SDS011;61575;49.908;35.556;2024-01-07T03:11:41;16.13;;;7.00;;
73337;SDS011;61575;49.908;35.556;2024-01-07T03:14:43;14.73;;;6.47;;
73337;SDS011;61575;49.908;35.556;2024-01-07T03:17:45;16.17;;;6.57;;
73337;SDS011;61575;49.908;35.556;2024-01-07T03:20:47;15.68;;;6.88;;
73337;SDS011;61575;49.908;35.556;2024-01-07T03:23:50;14.40;;;6.37;;
73337;SDS011;61575;49.908;35.556;2024-01-07T03:29:54;14.15;;;6.03;;
73337;SDS011;61575;49.908;35.556;2024-01-07T03:32:56;14.97;;;6.10;;
73337;SDS011;61575;49.908;35.556;2024-01-07T03:35:59;15.35;;;6.30;;
73337;SDS011;61575;49.908;35.556;2024-01-07T03:39:01;16.73;;;6.47;;
73337;SDS011;61575;49.908;35.556;2024-01-07T03:42:03;15.47;;;6.43;;
73337;SDS011;61575;49.908;35.556;2024-01-07T03:45:07;15.25;;;5.88;;
73337;SDS011;61575;49.908;35.556;2024-01-07T03:48:10;14.98;;;6.40;;
73337;SDS011;61575;49.908;35.556;2024-01-07T03:51:12;14.25;;;6.22;;
73337;SDS011;61575;49.908;35.556;2024-01-07T03:54:14;15.83;;;6.80;;
73337;SDS011;61575;49.908;35.556;2024-01-07T03:57:16;16.10;;;6.60;;
73337;SDS011;61575;49.908;35.556;2024-01-07T04:00:18;15.10;;;6.10;;
73337;SDS011;61575;49.908;35.556;2024-01-07T04:03:21;15.23;;;5.88;;
73337;SDS011;61575;49.908;35.556;2024-01-07T04:06:23;13.27;;;5.27;;
73337;SDS011;61575;49.908;35.556;2024-01-07T04:09:25;11.87;;;4.77;;
73337;SDS011;61575;49.908;35.556;2024-01-07T04:12:27;14.85;;;6.07;;
73337;SDS011;61575;49.908;35.556;2024-01-07T04:15:29;10.47;;;4.37;;
73337;SDS011;61575;49.908;35.556;2024-01-07T04:18:31;14.07;;;5.50;;
73337;SDS011;61575;49.908;35.556;2024-01-07T04:21:33;13.73;;;5.95;;
73337;SDS011;61575;49.908;35.556;2024-01-07T04:24:40;14.85;;;6.15;;
73337;SDS011;61575;49.908;35.556;2024-01-07T04:27:43;14.25;;;4.90;;
73337;SDS011;61575;49.908;35.556;2024-01-07T04:30:45;14.20;;;5.10;;
73337;SDS011;61575;49.908;35.556;2024-01-07T04:33:47;12.43;;;4.90;;
73337;SDS011;61575;49.908;35.556;2024-01-07T04:36:50;11.55;;;5.20;;
73337;SDS011;61575;49.908;35.556;2024-01-07T04:39:52;9.60;;;4.20;;
73337;SDS011;61575;49.908;35.556;2024-01-07T04:42:54;11.05;;;4.70;;
73337;SDS011;61575;49.908;35.556;2024-01-07T04:45:56;13.75;;;5.05;;
73337;SDS011;61575;49.908;35.556;2024-01-07T04:48:58;10.00;;;4.63;;
73337;SDS011;61575;49.908;35.556;2024-01-07T04:52:00;10.38;;;4.15;;
73337;SDS011;61575;49.908;35.556;2024-01-07T04:55:03;10.37;;;4.20;;
73337;SDS011;61575;49.908;35.556;2024-01-07T04:58:05;10.95;;;4.38;;
73337;SDS011;61575;49.908;35.556;2024-01-07T05:01:07;10.07;;;4.13;;
73337;SDS011;61575;49.908;35.556;2024-01-07T05:04:09;11.65;;;4.53;;
73337;SDS011;61575;49.908;35.556;2024-01-07T05:07:12;12.55;;;4.50;;
73337;SDS011;61575;49.908;35.556;2024-01-07T05:10:14;11.87;;;4.20;;
73337;SDS011;61575;49.908;35.556;2024-01-07T05:13:17;12.35;;;4.63;;
73337;SDS011;61575;49.908;35.556;2024-01-07T05:16:19;10.17;;;4.40;;
73337;SDS011;61575;49.908;35.556;2024-01-07T05:22:24;11.68;;;4.45;;
73337;SDS011;61575;49.908;35.556;2024-01-07T05:25:26;7.83;;;3.40;;
73337;SDS011;61575;49.908;35.556;2024-01-07T05:28:28;12.07;;;4.50;;
73337;SDS011;61575;49.908;35.556;2024-01-07T05:31:30;13.45;;;4.18;;
73337;SDS011;61575;49.908;35.556;2024-01-07T05:34:32;11.07;;;4.38;;
73337;SDS011;61575;49.908;35.556;2024-01-07T05:37:35;12.05;;;4.60;;
73337;SDS011;61575;49.908;35.556;2024-01-07T05:40:37;11.70;;;4.43;;
73337;SDS011;61575;49.908;35.556;2024-01-07T05:43:39;9.90;;;3.53;;
73337;SDS011;61575;49.908;35.556;2024-01-07T05:46:41;13.32;;;5.03;;
73337;SDS011;61575;49.908;35.556;2024-01-07T05:49:43;7.47;;;3.67;;
73337;SDS011;61575;49.908;35.556;2024-01-07T05:52:45;12.23;;;4.10;;
73337;SDS011;61575;49.908;35.556;2024-01-07T05:55:47;10.40;;;4.47;;
73337;SDS011;61575;49.908;35.556;2024-01-07T05:58:49;12.70;;;4.67;;
73337;SDS011;61575;49.908;35.556;2024-01-07T06:01:51;9.47;;;3.77;;
73337;SDS011;61575;49.908;35.556;2024-01-07T06:04:59;10.82;;;4.45;;
73337;SDS011;61575;49.908;35.556;2024-01-07T06:08:01;9.15;;;3.88;;
73337;SDS011;61575;49.908;35.556;2024-01-07T06:11:03;12.43;;;5.13;;
73337;SDS011;61575;49.908;35.556;2024-01-07T06:14:05;11.57;;;4.63;;
73337;SDS011;61575;49.908;35.556;2024-01-07T06:17:07;12.07;;;4.85;;
73337;SDS011;61575;49.908;35.556;2024-01-07T06:20:09;11.93;;;4.67;;
73337;SDS011;61575;49.908;35.556;2024-01-07T06:23:12;13.70;;;4.95;;
73337;SDS011;61575;49.908;35.556;2024-01-07T06:26:15;11.77;;;4.82;;
73337;SDS011;61575;49.908;35.556;2024-01-07T06:29:17;14.00;;;5.22;;
73337;SDS011;61575;49.908;35.556;2024-01-07T06:32:20;8.88;;;4.20;;
73337;SDS011;61575;49.908;35.556;2024-01-07T06:35:23;12.60;;;5.22;;
73337;SDS011;61575;49.908;35.556;2024-01-07T06:38:25;13.97;;;5.00;;
73337;SDS011;61575;49.908;35.556;2024-01-07T06:41:27;13.43;;;4.97;;
73337;SDS011;61575;49.908;35.556;2024-01-07T06:44:29;12.30;;;5.40;;
73337;SDS011;61575;49.908;35.556;2024-01-07T06:47:31;13.00;;;5.45;;
73337;SDS011;61575;49.908;35.556;2024-01-07T06:50:33;13.63;;;6.03;;
73337;SDS011;61575;49.908;35.556;2024-01-07T06:53:35;13.85;;;6.35;;
73337;SDS011;61575;49.908;35.556;2024-01-07T06:56:38;16.23;;;6.55;;
73337;SDS011;61575;49.908;35.556;2024-01-07T06:59:40;15.37;;;6.20;;
73337;SDS011;61575;49.908;35.556;2024-01-07T07:02:42;17.47;;;6.33;;
73337;SDS011;61575;49.908;35.556;2024-01-07T07:05:44;14.13;;;5.53;;
73337;SDS011;61575;49.908;35.556;2024-01-07T07:08:46;15.35;;;6.88;;
73337;SDS011;61575;49.908;35.556;2024-01-07T07:11:48;14.80;;;4.97;;
73337;SDS011;61575;49.908;35.556;2024-01-07T07:14:50;10.10;;;4.13;;
73337;SDS011;61575;49.908;35.556;2024-01-07T07:17:52;10.77;;;4.70;;
73337;SDS011;61575;49.908;35.556;2024-01-07T07:20:54;16.92;;;8.05;;
73337;SDS011;61575;49.908;35.556;2024-01-07T07:23:56;17.97;;;6.93;;
73337;SDS011;61575;49.908;35.556;2024-01-07T07:26:58;19.70;;;8.10;;
73337;SDS011;61575;49.908;35.556;2024-01-07T07:30:00;15.60;;;6.77;;
73337;SDS011;61575;49.908;35.556;2024-01-07T07:33:02;14.63;;;6.03;;
73337;SDS011;61575;49.908;35.556;2024-01-07T07:36:05;25.23;;;8.98;;
73337;SDS011;61575;49.908;35.556;2024-01-07T07:42:10;16.73;;;6.22;;
73337;SDS011;61575;49.908;35.556;2024-01-07T07:45:13;18.08;;;6.72;;
73337;SDS011;61575;49.908;35.556;2024-01-07T07:48:15;13.32;;;5.88;;
73337;SDS011;61575;49.908;35.556;2024-01-07T07:51:18;13.35;;;6.05;;
73337;SDS011;61575;49.908;35.556;2024-01-07T07:54:21;14.95;;;6.57;;
73337;SDS011;61575;49.908;35.556;2024-01-07T07:57:23;14.87;;;5.77;;
73337;SDS011;61575;49.908;35.556;2024-01-07T08:03:29;13.88;;;6.50;;
73337;SDS011;61575;49.908;35.556;2024-01-07T08:06:33;14.40;;;6.13;;
73337;SDS011;61575;49.908;35.556;2024-01-07T08:09:35;14.97;;;7.20;;
73337;SDS011;61575;49.908;35.556;2024-01-07T08:12:40;13.02;;;6.13;;
73337;SDS011;61575;49.908;35.556;2024-01-07T08:15:42;14.50;;;5.63;;
73337;SDS011;61575;49.908;35.556;2024-01-07T08:18:45;13.07;;;5.68;;
73337;SDS011;61575;49.908;35.556;2024-01-07T08:24:50;11.73;;;4.75;;
73337;SDS011;61575;49.908;35.556;2024-01-07T08:27:52;11.35;;;4.75;;
73337;SDS011;61575;49.908;35.556;2024-01-07T08:30:54;11.10;;;4.93;;
73337;SDS011;61575;49.908;35.556;2024-01-07T08:33:58;12.50;;;5.80;;
73337;SDS011;61575;49.908;35.556;2024-01-07T08:37:00;9.73;;;4.28;;
73337;SDS011;61575;49.908;35.556;2024-01-07T08:40:02;8.30;;;4.60;;
73337;SDS011;61575;49.908;35.556;2024-01-07T08:43:04;8.68;;;4.15;;
73337;SDS011;61575;49.908;35.556;2024-01-07T08:46:07;11.77;;;4.95;;
73337;SDS011;61575;49.908;35.556;2024-01-07T08:49:09;8.13;;;3.80;;
73337;SDS011;61575;49.908;35.556;2024-01-07T08:52:11;9.20;;;4.43;;
73337;SDS011;61575;49.908;35.556;2024-01-07T08:55:13;10.60;;;4.93;;
73337;SDS011;61575;49.908;35.556;2024-01-07T08:58:17;8.23;;;3.90;;
73337;SDS011;61575;49.908;35.556;2024-01-07T09:01:19;9.10;;;4.10;;
73337;SDS011;61575;49.908;35.556;2024-01-07T09:04:21;12.40;;;5.35;;
73337;SDS011;61575;49.908;35.556;2024-01-07T09:07:24;12.52;;;4.63;;
73337;SDS011;61575;49.908;35.556;2024-01-07T09:10:26;8.63;;;3.80;;
73337;SDS011;61575;49.908;35.556;2024-01-07T09:13:28;8.63;;;4.88;;
73337;SDS011;61575;49.908;35.556;2024-01-07T09:16:30;10.57;;;5.90;;
73337;SDS011;61575;49.908;35.556;2024-01-07T09:19:32;12.40;;;5.80;;
73337;SDS011;61575;49.908;35.556;2024-01-07T09:22:34;9.77;;;4.70;;
73337;SDS011;61575;49.908;35.556;2024-01-07T09:25:37;7.25;;;3.60;;
73337;SDS011;61575;49.908;35.556;2024-01-07T09:28:39;7.30;;;3.67;;
73337;SDS011;61575;49.908;35.556;2024-01-07T09:31:41;11.63;;;5.38;;
73337;SDS011;61575;49.908;35.556;2024-01-07T09:34:44;8.95;;;4.18;;
73337;SDS011;61575;49.908;35.556;2024-01-07T09:37:47;8.23;;;3.80;;
73337;SDS011;61575;49.908;35.556;2024-01-07T09:40:49;16.20;;;9.40;;
73337;SDS011;61575;49.908;35.556;2024-01-07T09:43:51;10.47;;;6.13;;
73337;SDS011;61575;49.908;35.556;2024-01-07T09:46:56;10.63;;;5.30;;
73337;SDS011;61575;49.908;35.556;2024-01-07T09:49:59;9.48;;;3.83;;
73337;SDS011;61575;49.908;35.556;2024-01-07T09:53:01;8.80;;;4.72;;
73337;SDS011;61575;49.908;35.556;2024-01-07T09:59:44;8.68;;;4.38;;
73337;SDS011;61575;49.908;35.556;2024-01-07T10:02:48;7.63;;;4.05;;
73337;SDS011;61575;49.908;35.556;2024-01-07T10:05:50;8.03;;;4.07;;
73337;SDS011;61575;49.908;35.556;2024-01-07T10:08:52;7.70;;;3.00;;
73337;SDS011;61575;49.908;35.556;2024-01-07T10:11:54;6.50;;;3.30;;
73337;SDS011;61575;49.908;35.556;2024-01-07T10:14:56;8.73;;;3.67;;
73337;SDS011;61575;49.908;35.556;2024-01-07T10:18:05;10.25;;;5.68;;
73337;SDS011;61575;49.908;35.556;2024-01-07T10:21:08;10.80;;;4.40;;
73337;SDS011;61575;49.908;35.556;2024-01-07T10:24:11;9.23;;;4.30;;
73337;SDS011;61575;49.908;35.556;2024-01-07T10:27:14;10.63;;;3.90;;
73337;SDS011;61575;49.908;35.556;2024-01-07T10:30:16;6.22;;;3.28;;
73337;SDS011;61575;49.908;35.556;2024-01-07T10:33:18;7.45;;;3.35;;
73337;SDS011;61575;49.908;35.556;2024-01-07T10:36:21;12.05;;;5.30;;
73337;SDS011;61575;49.908;35.556;2024-01-07T10:39:24;13.05;;;5.57;;
73337;SDS011;61575;49.908;35.556;2024-01-07T10:42:26;9.32;;;4.05;;
73337;SDS011;61575;49.908;35.556;2024-01-07T10:45:28;10.73;;;5.45;;
73337;SDS011;61575;49.908;35.556;2024-01-07T10:48:31;8.77;;;4.70;;
73337;SDS011;61575;49.908;35.556;2024-01-07T10:51:39;10.77;;;6.30;;
73337;SDS011;61575;49.908;35.556;2024-01-07T10:54:44;12.63;;;6.50;;
73337;SDS011;61575;49.908;35.556;2024-01-07T10:57:50;9.95;;;4.80;;
73337;SDS011;61575;49.908;35.556;2024-01-07T11:00:52;10.30;;;6.03;;
73337;SDS011;61575;49.908;35.556;2024-01-07T11:04:11;10.10;;;4.53;;
73337;SDS011;61575;49.908;35.556;2024-01-07T11:07:23;7.10;;;3.60;;
73337;SDS011;61575;49.908;35.556;2024-01-07T11:10:44;8.65;;;4.15;;
73337;SDS011;61575;49.908;35.556;2024-01-07T11:13:54;6.35;;;3.00;;
73337;SDS011;61575;49.908;35.556;2024-01-07T11:17:00;6.45;;;3.20;;
73337;SDS011;61575;49.908;35.556;2024-01-07T11:20:04;6.28;;;2.85;;
73337;SDS011;61575;49.908;35.556;2024-01-07T11:26:32;8.15;;;3.60;;
73337;SDS011;61575;49.908;35.556;2024-01-07T11:29:35;8.25;;;3.20;;
73337;SDS011;61575;49.908;35.556;2024-01-07T11:32:38;8.50;;;3.30;;
73337;SDS011;61575;49.908;35.556;2024-01-07T11:35:54;7.13;;;2.78;;
73337;SDS011;61575;49.908;35.556;2024-01-07T11:39:02;9.57;;;4.72;;
73337;SDS011;61575;49.908;35.556;2024-01-07T11:45:07;11.20;;;4.90;;
73337;SDS011;61575;49.908;35.556;2024-01-07T11:48:12;8.15;;;3.97;;
73337;SDS011;61575;49.908;35.556;2024-01-07T11:51:15;9.02;;;4.20;;
73337;SDS011;61575;49.908;35.556;2024-01-07T11:54:18;11.45;;;4.82;;
73337;SDS011;61575;49.908;35.556;2024-01-07T11:57:21;12.27;;;5.80;;
73337;SDS011;61575;49.908;35.556;2024-01-07T12:00:24;9.80;;;4.47;;
73337;SDS011;61575;49.908;35.556;2024-01-07T12:03:27;8.02;;;4.25;;
73337;SDS011;61575;49.908;35.556;2024-01-07T12:06:29;9.83;;;4.70;;
73337;SDS011;61575;49.908;35.556;2024-01-07T12:09:31;9.70;;;4.50;;
73337;SDS011;61575;49.908;35.556;2024-01-07T12:12:34;11.13;;;6.65;;
73337;SDS011;61575;49.908;35.556;2024-01-07T12:15:37;13.45;;;6.75;;
73337;SDS011;61575;49.908;35.556;2024-01-07T12:18:40;10.27;;;4.75;;
73337;SDS011;61575;49.908;35.556;2024-01-07T12:21:42;11.57;;;5.07;;
73337;SDS011;61575;49.908;35.556;2024-01-07T12:24:44;8.20;;;3.97;;
73337;SDS011;61575;49.908;35.556;2024-01-07T12:27:46;9.23;;;4.55;;
73337;SDS011;61575;49.908;35.556;2024-01-07T12:30:50;11.77;;;5.97;;
73337;SDS011;61575;49.908;35.556;2024-01-07T12:33:52;9.23;;;4.10;;
73337;SDS011;61575;49.908;35.556;2024-01-07T12:36:55;9.85;;;5.05;;
73337;SDS011;61575;49.908;35.556;2024-01-07T12:39:57;19.25;;;10.82;;
73337;SDS011;61575;49.908;35.556;2024-01-07T12:42:59;18.58;;;9.57;;
73337;SDS011;61575;49.908;35.556;2024-01-07T12:46:01;12.47;;;4.80;;
73337;SDS011;61575;49.908;35.556;2024-01-07T12:49:07;9.80;;;4.82;;
73337;SDS011;61575;49.908;35.556;2024-01-07T12:52:09;13.07;;;6.03;;
73337;SDS011;61575;49.908;35.556;2024-01-07T12:55:11;9.98;;;5.40;;
73337;SDS011;61575;49.908;35.556;2024-01-07T12:58:13;15.25;;;5.28;;
73337;SDS011;61575;49.908;35.556;2024-01-07T13:01:16;10.68;;;5.00;;
73337;SDS011;61575;49.908;35.556;2024-01-07T13:04:18;11.93;;;4.85;;
73337;SDS011;61575;49.908;35.556;2024-01-07T13:10:25;11.30;;;5.15;;
73337;SDS011;61575;49.908;35.556;2024-01-07T13:13:27;11.00;;;5.72;;
73337;SDS011;61575;49.908;35.556;2024-01-07T13:16:29;14.73;;;5.43;;
73337;SDS011;61575;49.908;35.556;2024-01-07T13:19:31;9.20;;;4.07;;
73337;SDS011;61575;49.908;35.556;2024-01-07T13:22:33;13.68;;;5.28;;
73337;SDS011;61575;49.908;35.556;2024-01-07T13:25:36;12.50;;;5.55;;
73337;SDS011;61575;49.908;35.556;2024-01-07T13:28:38;14.43;;;6.83;;
73337;SDS011;61575;49.908;35.556;2024-01-07T13:31:40;9.52;;;5.20;;
73337;SDS011;61575;49.908;35.556;2024-01-07T13:34:43;19.17;;;8.05;;
73337;SDS011;61575;49.908;35.556;2024-01-07T13:40:48;14.35;;;6.43;;
73337;SDS011;61575;49.908;35.556;2024-01-07T13:43:50;13.15;;;6.25;;
73337;SDS011;61575;49.908;35.556;2024-01-07T13:46:52;14.73;;;6.33;;
73337;SDS011;61575;49.908;35.556;2024-01-07T13:49:55;8.60;;;3.95;;
73337;SDS011;61575;49.908;35.556;2024-01-07T13:52:57;10.25;;;4.50;;
73337;SDS011;61575;49.908;35.556;2024-01-07T13:55:59;6.88;;;3.65;;
73337;SDS011;61575;49.908;35.556;2024-01-07T13:59:02;8.80;;;4.17;;
73337;SDS011;61575;49.908;35.556;2024-01-07T14:02:07;10.57;;;5.47;;
73337;SDS011;61575;49.908;35.556;2024-01-07T14:08:13;13.30;;;5.20;;
73337;SDS011;61575;49.908;35.556;2024-01-07T14:11:15;9.93;;;4.50;;
73337;SDS011;61575;49.908;35.556;2024-01-07T14:14:17;12.18;;;4.82;;
73337;SDS011;61575;49.908;35.556;2024-01-07T14:17:20;12.02;;;5.10;;
73337;SDS011;61575;49.908;35.556;2024-01-07T14:20:23;10.77;;;4.35;;
73337;SDS011;61575;49.908;35.556;2024-01-07T14:23:25;12.63;;;5.43;;
73337;SDS011;61575;49.908;35.556;2024-01-07T14:26:27;10.73;;;4.22;;
73337;SDS011;61575;49.908;35.556;2024-01-07T14:29:29;11.23;;;5.60;;
73337;SDS011;61575;49.908;35.556;2024-01-07T14:36:02;11.55;;;4.80;;
73337;SDS011;61575;49.908;35.556;2024-01-07T14:39:05;10.57;;;4.53;;
73337;SDS011;61575;49.908;35.556;2024-01-07T14:42:07;10.95;;;5.35;;
73337;SDS011;61575;49.908;35.556;2024-01-07T14:45:09;11.07;;;4.75;;
73337;SDS011;61575;49.908;35.556;2024-01-07T14:48:11;12.50;;;4.93;;
73337;SDS011;61575;49.908;35.556;2024-01-07T14:51:15;13.90;;;5.70;;
73337;SDS011;61575;49.908;35.556;2024-01-07T14:54:18;11.52;;;4.88;;
73337;SDS011;61575;49.908;35.556;2024-01-07T14:57:20;13.98;;;4.90;;
73337;SDS011;61575;49.908;35.556;2024-01-07T15:00:22;12.15;;;4.88;;
73337;SDS011;61575;49.908;35.556;2024-01-07T15:03:25;13.13;;;5.00;;
73337;SDS011;61575;49.908;35.556;2024-01-07T15:06:27;11.95;;;4.13;;
73337;SDS011;61575;49.908;35.556;2024-01-07T15:09:29;12.43;;;4.70;;
73337;SDS011;61575;49.908;35.556;2024-01-07T15:12:31;13.02;;;4.50;;
73337;SDS011;61575;49.908;35.556;2024-01-07T15:15:38;13.93;;;5.88;;
73337;SDS011;61575;49.908;35.556;2024-01-07T15:18:40;24.20;;;6.85;;
73337;SDS011;61575;49.908;35.556;2024-01-07T15:24:46;12.50;;;5.13;;
73337;SDS011;61575;49.908;35.556;2024-01-07T15:27:48;14.00;;;5.90;;
73337;SDS011;61575;49.908;35.556;2024-01-07T15:30:50;12.85;;;5.22;;
73337;SDS011;61575;49.908;35.556;2024-01-07T15:33:52;15.23;;;5.68;;
73337;SDS011;61575;49.908;35.556;2024-01-07T15:36:54;12.20;;;5.07;;
73337;SDS011;61575;49.908;35.556;2024-01-07T15:39:56;15.25;;;5.53;;
73337;SDS011;61575;49.908;35.556;2024-01-07T15:42:58;10.65;;;4.38;;
73337;SDS011;61575;49.908;35.556;2024-01-07T15:46:01;12.45;;;5.40;;
73337;SDS011;61575;49.908;35.556;2024-01-07T15:49:04;15.25;;;5.10;;
73337;SDS011;61575;49.908;35.556;2024-01-07T15:52:07;12.32;;;5.10;;
73337;SDS011;61575;49.908;35.556;2024-01-07T15:55:09;14.38;;;5.47;;
73337;SDS011;61575;49.908;35.556;2024-01-07T15:58:14;13.52;;;5.80;;
73337;SDS011;61575;49.908;35.556;2024-01-07T16:01:17;14.07;;;6.07;;
73337;SDS011;61575;49.908;35.556;2024-01-07T16:04:19;13.80;;;5.32;;
73337;SDS011;61575;49.908;35.556;2024-01-07T16:07:24;13.07;;;5.28;;
73337;SDS011;61575;49.908;35.556;2024-01-07T16:10:26;12.27;;;5.00;;
73337;SDS011;61575;49.908;35.556;2024-01-07T16:13:29;11.55;;;5.32;;
73337;SDS011;61575;49.908;35.556;2024-01-07T16:16:32;13.13;;;5.97;;
73337;SDS011;61575;49.908;35.556;2024-01-07T16:19:34;15.73;;;7.72;;
73337;SDS011;61575;49.908;35.556;2024-01-07T16:22:37;14.38;;;6.88;;
73337;SDS011;61575;49.908;35.556;2024-01-07T16:25:39;21.38;;;9.57;;
73337;SDS011;61575;49.908;35.556;2024-01-07T16:28:41;13.90;;;6.43;;
73337;SDS011;61575;49.908;35.556;2024-01-07T16:31:44;13.05;;;6.22;;
73337;SDS011;61575;49.908;35.556;2024-01-07T16:34:47;13.35;;;5.93;;
73337;SDS011;61575;49.908;35.556;2024-01-07T16:37:51;17.08;;;6.00;;
73337;SDS011;61575;49.908;35.556;2024-01-07T16:40:53;12.80;;;6.23;;
73337;SDS011;61575;49.908;35.556;2024-01-07T16:43:55;19.20;;;8.93;;
73337;SDS011;61575;49.908;35.556;2024-01-07T16:46:57;13.60;;;5.47;;
73337;SDS011;61575;49.908;35.556;2024-01-07T16:49:59;12.35;;;5.18;;
73337;SDS011;61575;49.908;35.556;2024-01-07T16:53:21;14.35;;;5.88;;
73337;SDS011;61575;49.908;35.556;2024-01-07T16:56:24;14.05;;;5.97;;
73337;SDS011;61575;49.908;35.556;2024-01-07T16:59:26;15.07;;;5.70;;
73337;SDS011;61575;49.908;35.556;2024-01-07T17:02:28;15.13;;;7.25;;
73337;SDS011;61575;49.908;35.556;2024-01-07T17:05:30;16.38;;;7.53;;
73337;SDS011;61575;49.908;35.556;2024-01-07T17:08:32;18.67;;;6.85;;
73337;SDS011;61575;49.908;35.556;2024-01-07T17:11:34;14.05;;;6.32;;
73337;SDS011;61575;49.908;35.556;2024-01-07T17:14:39;18.17;;;6.72;;
73337;SDS011;61575;49.908;35.556;2024-01-07T17:17:41;17.90;;;6.95;;
73337;SDS011;61575;49.908;35.556;2024-01-07T17:20:43;11.70;;;5.30;;
73337;SDS011;61575;49.908;35.556;2024-01-07T17:23:45;14.10;;;6.07;;
73337;SDS011;61575;49.908;35.556;2024-01-07T17:26:52;16.27;;;7.40;;
73337;SDS011;61575;49.908;35.556;2024-01-07T17:29:57;18.08;;;6.68;;
73337;SDS011;61575;49.908;35.556;2024-01-07T17:32:59;10.18;;;4.88;;
73337;SDS011;61575;49.908;35.556;2024-01-07T17:36:01;16.88;;;6.63;;
73337;SDS011;61575;49.908;35.556;2024-01-07T17:39:04;15.52;;;6.47;;
73337;SDS011;61575;49.908;35.556;2024-01-07T17:42:11;20.63;;;8.13;;
73337;SDS011;61575;49.908;35.556;2024-01-07T17:45:13;20.67;;;7.78;;
73337;SDS011;61575;49.908;35.556;2024-01-07T17:48:16;16.50;;;7.15;;
73337;SDS011;61575;49.908;35.556;2024-01-07T17:51:18;13.23;;;5.60;;
73337;SDS011;61575;49.908;35.556;2024-01-07T17:54:21;19.90;;;8.82;;
73337;SDS011;61575;49.908;35.556;2024-01-07T17:57:23;13.57;;;6.03;;
73337;SDS011;61575;49.908;35.556;2024-01-07T18:00:25;17.05;;;6.22;;
73337;SDS011;61575;49.908;35.556;2024-01-07T18:03:28;12.57;;;5.25;;
73337;SDS011;61575;49.908;35.556;2024-01-07T18:06:30;16.58;;;7.13;;
73337;SDS011;61575;49.908;35.556;2024-01-07T18:09:32;13.35;;;6.32;;
73337;SDS011;61575;49.908;35.556;2024-01-07T18:12:34;17.45;;;7.07;;
73337;SDS011;61575;49.908;35.556;2024-01-07T18:15:36;19.67;;;8.30;;
73337;SDS011;61575;49.908;35.556;2024-01-07T18:18:38;26.30;;;11.40;;
73337;SDS011;61575;49.908;35.556;2024-01-07T18:21:41;29.45;;;11.20;;
73337;SDS011;61575;49.908;35.556;2024-01-07T18:24:46;26.77;;;8.85;;
73337;SDS011;61575;49.908;35.556;2024-01-07T18:27:49;29.50;;;10.77;;
73337;SDS011;61575;49.908;35.556;2024-01-07T18:30:51;14.75;;;7.18;;